Time;durP1;ratioP1;P1;durP2;ratioP2;P2;SDS_P1;SDS_P2;PMS_P1;PMS_P2;Temp;Humidity;BMP_temperature;BMP_pressure;BME280_temperature;BME280_humidity;BME280_pressure;Samples;Min_cycle;Max_cycle;Signal;HPM_P1;HPM_P2
2022/01/11 00:01:03;;;;;;;;;20.50;13.00;;;;;3.93;88.57;102631.19;4999803;28;45459;-68
2022/01/11 00:03:29;;;;;;;;;19.50;15.00;;;;;3.90;89.19;102626.75;4999470;28;46349;-69
2022/01/11 00:06:00;;;;;;;;;20.00;15.67;;;;;3.66;88.88;102575.56;4999496;28;45400;-69
2022/01/11 00:08:31;;;;;;;;;17.33;10.00;;;;;3.94;88.66;102632.97;4999557;28;45398;-68
2022/01/11 00:11:03;;;;;;;;;16.67;14.33;;;;;3.98;88.36;102634.84;4999152;28;45381;-69
2022/01/11 00:13:34;;;;;;;;;41.33;33.33;;;;;4.01;89.28;102634.94;4999321;28;47200;-69
2022/01/11 00:15:59;;;;;;;;;20.00;18.33;;;;;4.03;89.10;102650.66;4999043;28;45267;-69
2022/01/11 00:18:25;;;;;;;;;16.67;15.00;;;;;4.01;88.50;102654.06;4999416;28;45374;-69
2022/01/11 00:20:50;;;;;;;;;23.00;17.33;;;;;4.01;88.76;102648.84;4999594;28;45365;-69
2022/01/11 00:25:44;;;;;;;;;26.67;18.67;;;;;3.94;88.29;102646.88;4999086;28;45283;-69
2022/01/11 00:28:12;;;;;;;;;16.33;15.33;;;;;3.87;89.31;102641.41;4999238;28;45434;-69
2022/01/11 00:30:40;;;;;;;;;18.00;14.33;;;;;3.89;88.63;102658.84;4997979;28;45493;-69
2022/01/11 00:33:11;;;;;;;;;26.33;18.00;;;;;3.80;89.50;102643.75;4998806;28;46113;-69
2022/01/11 00:35:46;;;;;;;;;21.00;17.33;;;;;3.84;89.64;102648.25;4998772;28;45402;-69
2022/01/11 00:38:17;;;;;;;;;17.50;16.00;;;;;3.97;88.80;102661.72;4999114;28;45300;-69
2022/01/11 00:40:47;;;;;;;;;21.33;18.33;;;;;3.97;89.00;102667.81;4999156;28;45190;-68
2022/01/11 00:43:13;;;;;;;;;19.67;16.00;;;;;3.92;88.84;102652.84;4998887;28;45466;-68
2022/01/11 00:45:38;;;;;;;;;20.00;14.33;;;;;3.97;88.06;102672.16;4998849;28;45546;-69
2022/01/11 00:48:04;;;;;;;;;22.00;16.67;;;;;3.92;89.29;102676.31;4998989;28;45229;-69
2022/01/11 00:50:32;;;;;;;;;22.00;17.00;;;;;3.91;88.93;102680.66;4999204;28;45364;-68
2022/01/11 00:52:58;;;;;;;;;20.00;16.67;;;;;3.92;88.94;102682.44;4998609;28;45438;-68
2022/01/11 00:55:24;;;;;;;;;18.67;17.00;;;;;3.84;89.01;102679.53;4998669;28;45489;-68
2022/01/11 00:57:49;;;;;;;;;20.67;16.33;;;;;3.91;88.65;102685.84;4998635;28;45449;-68
2022/01/11 01:00:15;;;;;;;;;23.00;16.67;;;;;3.87;88.52;102672.66;4998865;28;45293;-69
2022/01/11 01:02:41;;;;;;;;;23.67;16.00;;;;;3.94;88.71;102687.69;4998485;28;47090;-68
2022/01/11 01:05:08;;;;;;;;;27.67;24.00;;;;;3.91;89.01;102679.78;4997682;28;45304;-68
2022/01/11 01:07:33;;;;;;;;;21.00;16.00;;;;;3.92;88.51;102681.53;4998866;28;45296;-69
2022/01/11 01:10:05;;;;;;;;;29.33;18.33;;;;;3.91;87.48;102682.38;4998516;28;45227;-69
2022/01/11 01:12:31;;;;;;;;;25.67;21.00;;;;;3.82;88.18;102689.00;4998260;28;46579;-69
2022/01/11 01:14:57;;;;;;;;;15.00;15.00;;;;;3.70;88.37;102664.22;4998644;28;45462;-69
2022/01/11 01:17:22;;;;;;;;;24.33;20.00;;;;;3.87;88.26;102678.75;4998375;28;45669;-68
2022/01/11 01:19:48;;;;;;;;;21.00;18.33;;;;;3.83;88.00;102675.16;4998739;28;45395;-69
2022/01/11 01:22:14;;;;;;;;;25.00;20.67;;;;;3.76;89.04;102656.63;4998190;28;45822;-69
2022/01/11 01:24:40;;;;;;;;;20.67;18.00;;;;;3.87;88.43;102668.31;4998503;28;45260;-69
2022/01/11 01:27:06;;;;;;;;;16.67;15.33;;;;;3.88;87.59;102670.13;4998387;28;45367;-69
2022/01/11 01:29:31;;;;;;;;;23.33;17.33;;;;;3.84;88.65;102668.22;4998480;28;45369;-69
2022/01/11 01:31:58;;;;;;;;;28.00;17.67;;;;;3.83;87.97;102676.88;4998163;28;45531;-69
2022/01/11 01:34:24;;;;;;;;;21.67;17.33;;;;;3.77;88.12;102672.31;4997940;28;45290;-68
2022/01/11 01:36:50;;;;;;;;;20.67;16.33;;;;;3.73;88.03;102685.19;4997998;28;45434;-68
2022/01/11 01:39:16;;;;;;;;;17.33;14.00;;;;;3.73;88.17;102688.69;4998289;28;45262;-69
2022/01/11 01:41:43;;;;;;;;;27.00;20.67;;;;;3.79;89.40;102701.94;4997800;28;45422;-69
2022/01/11 01:44:09;;;;;;;;;22.33;18.33;;;;;3.81;88.69;102691.56;4997880;28;45213;-69
2022/01/11 01:46:35;;;;;;;;;22.33;16.67;;;;;3.78;88.37;102689.72;4998064;28;45289;-68
2022/01/11 01:49:01;;;;;;;;;25.33;16.67;;;;;3.74;88.47;102693.03;4998047;28;45439;-69
2022/01/11 01:51:28;;;;;;;;;26.33;19.33;;;;;3.72;89.18;102693.81;4997773;28;47053;-69
2022/01/11 01:53:54;;;;;;;;;22.33;16.67;;;;;3.53;88.95;102658.38;4997845;28;45362;-69
2022/01/11 01:56:22;;;;;;;;;21.00;16.00;;;;;3.76;89.07;102711.34;4997797;28;45393;-69
2022/01/11 01:58:48;;;;;;;;;27.00;15.00;;;;;3.80;88.63;102713.22;4997980;28;45585;-69
2022/01/11 02:01:14;;;;;;;;;17.67;16.00;;;;;3.81;89.14;102707.19;4997503;28;45753;-69
2022/01/11 02:03:42;;;;;;;;;17.00;12.00;;;;;3.80;87.58;102703.69;4997646;28;45340;-69
2022/01/11 02:06:12;;;;;;;;;22.67;17.33;;;;;3.76;88.86;102716.53;4997806;28;45276;-68
2022/01/11 02:08:39;;;;;;;;;20.00;15.33;;;;;3.74;88.38;102715.63;4997764;28;45632;-69
2022/01/11 02:11:06;;;;;;;;;23.67;15.00;;;;;3.59;88.62;102682.06;4997454;28;45392;-68
2022/01/11 02:13:31;;;;;;;;;17.00;13.33;;;;;3.69;89.58;102715.44;4997562;28;45404;-69
2022/01/11 02:15:57;;;;;;;;;20.50;14.00;;;;;3.66;88.68;102712.75;4997552;28;45328;-69
2022/01/11 02:18:26;;;;;;;;;25.00;17.33;;;;;3.66;88.78;102720.56;4997838;28;45438;-68
2022/01/11 02:20:53;;;;;;;;;15.00;13.00;;;;;3.67;88.60;102727.50;4997340;28;47291;-69
2022/01/11 02:23:20;;;;;;;;;22.67;15.67;;;;;3.63;88.25;102723.00;4997509;28;45405;-68
2022/01/11 02:25:46;;;;;;;;;20.33;14.67;;;;;3.62;88.24;102729.06;4997520;28;45424;-68
2022/01/11 02:28:16;;;;;;;;;19.33;13.33;;;;;3.54;88.46;102714.84;4997739;28;45397;-69
2022/01/11 02:30:42;;;;;;;;;19.67;13.67;;;;;3.42;89.09;102699.66;4996789;28;46515;-69
2022/01/11 02:33:17;;;;;;;;;27.33;17.33;;;;;3.46;90.00;102733.69;4989471;28;45346;-69
2022/01/11 02:35:50;;;;;;;;;19.67;16.00;;;;;3.48;89.66;102723.31;4997253;28;45172;-68
2022/01/11 02:38:15;;;;;;;;;16.33;13.00;;;;;3.49;89.33;102728.59;4997752;28;45434;-69
2022/01/11 02:40:42;;;;;;;;;17.33;15.00;;;;;3.52;89.46;102722.63;4997015;28;45464;-69
2022/01/11 02:43:07;;;;;;;;;21.00;17.33;;;;;3.57;89.06;102720.19;4997266;28;45220;-68
2022/01/11 02:45:33;;;;;;;;;21.00;17.00;;;;;3.49;88.88;102699.94;4997397;28;45312;-68
2022/01/11 02:47:58;;;;;;;;;20.33;18.00;;;;;3.45;89.19;102685.03;4997457;28;45355;-68
2022/01/11 02:50:24;;;;;;;;;20.33;17.33;;;;;3.55;89.12;102701.03;4997258;28;45478;-69
2022/01/11 02:52:50;;;;;;;;;20.50;14.00;;;;;3.43;90.52;102689.31;4997131;28;45379;-69
2022/01/11 02:55:16;;;;;;;;;17.67;16.00;;;;;3.54;90.01;102713.13;4997268;28;45492;-69
2022/01/11 02:57:42;;;;;;;;;17.67;15.00;;;;;3.48;89.40;102700.75;4997214;28;45332;-69
2022/01/11 03:00:11;;;;;;;;;17.00;14.50;;;;;3.58;89.46;102708.94;4996904;28;46290;-69
2022/01/11 03:02:36;;;;;;;;;21.50;15.75;;;;;3.54;89.23;102712.25;4996751;28;45249;-69
2022/01/11 03:05:05;;;;;;;;;22.33;15.67;;;;;3.46;88.86;102712.84;4997101;28;45545;-69
2022/01/11 03:07:30;;;;;;;;;16.75;13.50;;;;;3.45;89.56;102731.91;4997311;28;45346;-69
2022/01/11 03:10:05;;;;;;;;;16.75;13.00;;;;;3.53;90.36;102746.94;4996903;28;46111;-69
2022/01/11 03:12:31;;;;;;;;;24.33;19.67;;;;;3.49;89.34;102744.22;4996709;28;45428;-69
2022/01/11 03:14:57;;;;;;;;;17.67;16.00;;;;;3.51;89.78;102746.88;4996907;28;45348;-69
2022/01/11 03:17:23;;;;;;;;;20.75;15.50;;;;;3.53;89.67;102746.94;4997092;28;45585;-69
2022/01/11 03:19:49;;;;;;;;;14.50;14.00;;;;;3.48;89.46;102754.56;4996606;28;46324;-69
2022/01/11 03:22:14;;;;;;;;;18.33;16.33;;;;;3.46;90.06;102764.06;4996645;28;45336;-69
2022/01/11 03:24:40;;;;;;;;;19.33;13.67;;;;;3.43;90.90;102754.41;4996821;28;45331;-69
2022/01/11 03:27:07;;;;;;;;;17.33;13.33;;;;;3.53;90.62;102757.34;4996737;28;45449;-69
2022/01/11 03:29:34;;;;;;;;;21.00;13.00;;;;;3.44;89.81;102742.25;4999278;28;46485;-69
2022/01/11 03:31:59;;;;;;;;;16.33;13.33;;;;;3.52;90.05;102745.19;5000061;28;45221;-69
2022/01/11 03:34:25;;;;;;;;;15.33;13.67;;;;;3.41;89.82;102732.63;5000112;28;45237;-68
2022/01/11 03:36:50;;;;;;;;;25.33;21.33;;;;;3.52;89.51;102742.56;5000035;28;45547;-69
2022/01/11 03:39:15;;;;;;;;;24.00;18.33;;;;;3.51;89.85;102740.78;4999860;28;45437;-69
2022/01/11 03:41:41;;;;;;;;;25.00;15.67;;;;;3.44;89.62;102729.22;5000052;28;45384;-69
2022/01/11 03:44:06;;;;;;;;;29.00;16.00;;;;;3.36;90.45;102726.34;4999933;28;45288;-68
2022/01/11 03:46:32;;;;;;;;;20.67;18.00;;;;;3.40;90.99;102728.25;5000107;28;45310;-69
2022/01/11 03:48:57;;;;;;;;;15.33;15.33;;;;;3.47;89.73;102726.75;4999671;28;46557;-69
2022/01/11 03:51:23;;;;;;;;;25.00;22.00;;;;;3.33;90.34;102713.22;4999326;28;45291;-69
2022/01/11 03:56:32;;;;;;;;;26.67;21.00;;;;;3.35;89.92;102719.34;4999836;28;45272;-69
2022/01/11 03:58:58;;;;;;;;;13.67;10.67;;;;;3.36;90.80;102728.94;4999438;28;46102;-69
2022/01/11 04:01:25;;;;;;;;;27.33;16.00;;;;;3.38;90.47;102719.47;4999934;28;45435;-69
2022/01/11 04:03:50;;;;;;;;;25.00;20.67;;;;;3.48;90.17;102731.13;4999604;28;45440;-69
2022/01/11 04:06:16;;;;;;;;;30.00;18.33;;;;;3.40;90.12;102703.91;4999601;28;45470;-69
2022/01/11 04:08:45;;;;;;;;;25.00;21.00;;;;;3.51;90.10;102732.97;4999495;28;46999;-69
2022/01/11 04:11:11;;;;;;;;;25.33;16.00;;;;;3.41;90.73;102727.44;4999250;28;45389;-68
2022/01/11 04:13:38;;;;;;;;;21.67;17.67;;;;;3.45;90.60;102731.91;4999509;28;45371;-69
2022/01/11 04:16:04;;;;;;;;;18.67;17.00;;;;;3.54;90.15;102748.72;4999257;28;45674;-68
2022/01/11 04:18:29;;;;;;;;;25.00;20.00;;;;;3.51;90.15;102744.28;4999065;28;46497;-69
2022/01/11 04:20:54;;;;;;;;;18.33;16.00;;;;;3.57;90.15;102757.56;4999447;28;45423;-68
2022/01/11 04:23:20;;;;;;;;;25.00;20.00;;;;;3.58;90.20;102748.00;4999454;28;45313;-68
2022/01/11 04:25:45;;;;;;;;;20.00;17.67;;;;;3.30;89.12;102695.75;4999520;28;45503;-69
2022/01/11 04:28:10;;;;;;;;;26.33;19.33;;;;;3.57;89.05;102733.22;4999094;28;45730;-69
2022/01/11 04:30:37;;;;;;;;;36.33;22.33;;;;;3.49;89.54;102730.31;4999385;28;45308;-69
2022/01/11 04:33:04;;;;;;;;;25.33;21.00;;;;;3.45;89.06;102734.50;4999027;28;45492;-68
2022/01/11 04:35:30;;;;;;;;;24.33;21.00;;;;;3.33;89.72;102715.81;4999177;28;45746;-69
2022/01/11 04:37:55;;;;;;;;;22.67;20.33;;;;;3.43;90.38;102738.78;4999059;28;45327;-69
2022/01/11 04:40:21;;;;;;;;;20.00;15.67;;;;;3.49;90.04;102746.81;4997702;28;45344;-69
2022/01/11 04:42:46;;;;;;;;;23.67;20.67;;;;;3.51;89.75;102735.59;4998983;28;45410;-69
2022/01/11 04:45:14;;;;;;;;;30.33;20.33;;;;;3.55;89.00;102760.91;4999226;28;45467;-69
2022/01/11 04:47:40;;;;;;;;;26.00;20.00;;;;;3.46;89.74;102744.09;5014081;28;47554;-69
2022/01/11 04:50:08;;;;;;;;;24.67;20.00;;;;;3.51;89.30;102753.81;4998945;28;45967;-69
2022/01/11 04:52:33;;;;;;;;;26.33;19.00;;;;;3.52;89.19;102745.19;4998990;28;45178;-69
2022/01/11 04:54:59;;;;;;;;;22.67;17.00;;;;;3.53;89.63;102749.53;4999096;28;45291;-68
2022/01/11 04:57:24;;;;;;;;;23.00;21.33;;;;;3.60;89.13;102761.97;4998622;28;47183;-69
2022/01/11 04:59:50;;;;;;;;;25.00;19.00;;;;;3.59;89.36;102768.03;4998680;28;45325;-69
2022/01/11 05:02:15;;;;;;;;;31.33;23.67;;;;;3.58;88.57;102769.72;4998685;28;45262;-69
2022/01/11 05:04:40;;;;;;;;;26.00;22.33;;;;;3.54;89.32;102766.94;4999076;28;45490;-68
2022/01/11 05:07:06;;;;;;;;;26.00;20.33;;;;;3.55;88.69;102756.59;4998493;28;45493;-68
2022/01/11 05:09:31;;;;;;;;;26.00;18.67;;;;;3.52;89.52;102753.88;4998612;28;45349;-68
2022/01/11 05:11:56;;;;;;;;;26.00;21.67;;;;;3.53;88.41;102753.06;4998422;28;45438;-69
2022/01/11 05:14:22;;;;;;;;;30.67;21.67;;;;;3.46;89.05;102751.03;4998948;28;45340;-68
2022/01/11 05:16:47;;;;;;;;;33.00;26.33;;;;;3.41;88.29;102753.47;4998130;28;45351;-68
2022/01/11 05:19:13;;;;;;;;;39.00;28.33;;;;;3.31;89.48;102738.28;4998239;28;45497;-69
2022/01/11 05:21:43;;;;;;;;;29.00;22.33;;;;;3.36;89.37;102741.09;4998427;28;45413;-69
2022/01/11 05:24:09;;;;;;;;;29.67;23.67;;;;;3.39;90.31;102756.81;4998303;28;45328;-69
2022/01/11 05:26:35;;;;;;;;;31.33;24.33;;;;;3.35;89.31;102750.59;4997922;28;46716;-68
2022/01/11 05:29:01;;;;;;;;;28.67;24.33;;;;;3.43;89.24;102764.81;4998335;28;45431;-69
2022/01/11 05:31:26;;;;;;;;;31.00;22.00;;;;;3.45;89.52;102762.28;4998230;28;45428;-69
2022/01/11 05:33:52;;;;;;;;;33.33;26.00;;;;;3.41;88.90;102758.66;4998287;28;45473;-69
2022/01/11 05:36:17;;;;;;;;;37.00;29.67;;;;;3.41;88.98;102762.97;4997712;28;47453;-69
2022/01/11 05:38:43;;;;;;;;;20.67;19.67;;;;;3.40;90.03;102774.22;4998152;28;45414;-69
2022/01/11 05:41:10;;;;;;;;;25.67;23.00;;;;;3.35;89.23;102768.81;4998145;28;45367;-69
2022/01/11 05:43:36;;;;;;;;;35.33;23.67;;;;;3.32;90.24;102771.31;4998224;28;45596;-68
2022/01/11 05:46:03;;;;;;;;;25.67;20.00;;;;;3.41;88.41;102776.91;4998061;28;45533;-68
2022/01/11 05:48:32;;;;;;;;;28.00;19.67;;;;;3.25;88.93;102779.69;4997846;28;45390;-68
2022/01/11 05:50:58;;;;;;;;;35.67;20.00;;;;;3.31;89.40;102800.75;4997672;28;45300;-69
2022/01/11 05:53:23;;;;;;;;;33.33;21.67;;;;;3.29;89.57;102790.28;4998207;28;45386;-69
2022/01/11 05:55:48;;;;;;;;;30.67;22.67;;;;;3.22;89.29;102777.84;4997486;28;46976;-69
2022/01/11 05:58:14;;;;;;;;;23.67;21.00;;;;;3.28;89.11;102796.34;4997843;28;45338;-68
2022/01/11 06:00:39;;;;;;;;;19.00;18.00;;;;;3.30;88.91;102799.88;4997656;28;45863;-68
2022/01/11 06:03:05;;;;;;;;;23.67;21.67;;;;;3.24;89.35;102796.13;4997758;28;45506;-68
2022/01/11 06:05:34;;;;;;;;;34.00;25.67;;;;;3.19;89.17;102797.69;4997740;28;46118;-68
2022/01/11 06:08:00;;;;;;;;;29.00;22.00;;;;;3.14;90.12;102798.38;4997618;28;45226;-69
2022/01/11 06:10:25;;;;;;;;;25.67;20.67;;;;;3.15;89.55;102807.06;4997912;28;45267;-68
2022/01/11 06:12:51;;;;;;;;;35.67;29.00;;;;;3.03;89.75;102784.03;4997373;28;45645;-68
2022/01/11 06:15:16;;;;;;;;;37.67;23.00;;;;;3.12;89.41;102800.03;4997474;28;45491;-68
2022/01/11 06:17:41;;;;;;;;;30.67;23.67;;;;;3.08;90.68;102790.31;4990556;28;45438;-68
2022/01/11 06:20:08;;;;;;;;;29.33;24.00;;;;;3.17;89.58;102810.63;4961913;28;45388;-68
2022/01/11 06:22:34;;;;;;;;;31.33;24.67;;;;;3.17;88.99;102813.22;4964087;28;45468;-68
2022/01/11 06:25:03;;;;;;;;;26.67;24.67;;;;;3.06;89.58;102801.47;4958074;28;45969;-69
2022/01/11 06:27:29;;;;;;;;;27.67;22.00;;;;;3.08;89.28;102813.75;4957931;28;45411;-69
2022/01/11 06:29:55;;;;;;;;;25.33;20.33;;;;;2.98;89.59;102798.56;4958408;28;45335;-69
2022/01/11 06:32:20;;;;;;;;;30.00;26.67;;;;;3.04;89.43;102813.56;4958246;28;45240;-69
2022/01/11 06:34:46;;;;;;;;;33.00;26.33;;;;;2.97;89.16;102810.69;4957693;28;46381;-69
2022/01/11 06:37:12;;;;;;;;;36.33;28.00;;;;;2.90;89.39;102815.56;4956715;28;45325;-68
2022/01/11 06:39:37;;;;;;;;;61.33;45.00;;;;;2.90;89.75;102818.16;4957801;28;45409;-68
2022/01/11 06:42:04;;;;;;;;;36.00;27.33;;;;;2.87;89.60;102818.03;4957974;28;45367;-68
2022/01/11 06:44:31;;;;;;;;;33.33;25.67;;;;;2.85;89.86;102820.56;4957633;28;46426;-69
2022/01/11 06:46:56;;;;;;;;;37.67;23.00;;;;;2.83;90.63;102818.72;4957974;28;45349;-68
2022/01/11 06:49:22;;;;;;;;;37.00;28.33;;;;;2.84;90.31;102825.72;4958024;28;45407;-69
2022/01/11 06:51:47;;;;;;;;;34.00;26.33;;;;;2.82;90.43;102817.84;4958192;28;45290;-68
2022/01/11 06:54:12;;;;;;;;;36.67;28.00;;;;;2.84;90.20;102825.72;4958103;28;45530;-68
2022/01/11 06:56:38;;;;;;;;;27.67;23.00;;;;;2.83;91.00;102826.53;4957813;28;45380;-68
2022/01/11 06:59:03;;;;;;;;;45.67;32.33;;;;;2.78;89.60;102826.34;4957960;28;45462;-69
2022/01/11 07:01:29;;;;;;;;;45.33;30.33;;;;;2.79;90.36;102835.94;4958302;28;45440;-68
2022/01/11 07:03:55;;;;;;;;;40.00;29.00;;;;;2.72;89.98;102829.56;4959460;28;47246;-68
2022/01/11 07:06:20;;;;;;;;;34.33;24.00;;;;;2.65;90.51;102826.63;4961549;28;45313;-68
2022/01/11 07:08:46;;;;;;;;;43.33;32.00;;;;;2.75;90.54;102852.22;4961361;28;45444;-68
2022/01/11 07:11:12;;;;;;;;;42.67;27.00;;;;;2.78;89.73;102855.84;4961409;28;45498;-69
2022/01/11 07:13:37;;;;;;;;;34.67;25.33;;;;;2.64;90.68;102838.72;4961118;28;45826;-68
2022/01/11 07:16:03;;;;;;;;;34.33;31.33;;;;;2.72;90.06;102855.56;4960842;28;45329;-68
2022/01/11 07:18:28;;;;;;;;;50.33;34.33;;;;;2.70;90.40;102856.31;4961379;28;45300;-68
2022/01/11 07:20:53;;;;;;;;;37.67;27.67;;;;;2.73;90.20;102861.66;4961123;28;45233;-68
2022/01/11 07:23:19;;;;;;;;;43.67;32.33;;;;;2.43;89.90;102818.78;4960792;28;46729;-68
2022/01/11 07:25:44;;;;;;;;;33.00;28.33;;;;;2.69;90.22;102870.19;4960927;28;45327;-68
2022/01/11 07:28:12;;;;;;;;;24.67;22.67;;;;;2.68;89.80;102873.59;4960940;28;45422;-68
2022/01/11 07:30:37;;;;;;;;;45.67;31.33;;;;;2.69;90.21;102871.06;4961007;28;45167;-68
2022/01/11 07:33:03;;;;;;;;;33.33;25.33;;;;;2.70;90.35;102865.03;4960302;28;46684;-68
2022/01/11 07:35:28;;;;;;;;;37.33;30.33;;;;;2.72;90.34;102872.91;4960696;28;45215;-68
2022/01/11 07:37:54;;;;;;;;;36.00;28.67;;;;;2.70;91.54;102866.72;4960977;28;45325;-68
2022/01/11 07:40:20;;;;;;;;;38.67;33.00;;;;;2.79;89.82;102887.97;4960979;28;45479;-68
2022/01/11 07:42:48;;;;;;;;;33.33;17.67;;;;;2.78;88.99;102887.06;4960523;28;45411;-68
2022/01/11 07:45:14;;;;;;;;;34.67;23.00;;;;;2.74;89.20;102885.13;4959240;28;45431;-68
2022/01/11 07:47:39;;;;;;;;;41.67;30.33;;;;;2.68;89.22;102884.88;4960566;28;45379;-68
2022/01/11 07:50:06;;;;;;;;;44.00;30.00;;;;;2.60;89.11;102876.72;4960915;28;45350;-68
2022/01/11 07:52:32;;;;;;;;;44.33;30.00;;;;;2.69;89.31;102889.25;4960473;28;46515;-68
2022/01/11 07:54:57;;;;;;;;;42.67;34.33;;;;;2.64;88.87;102888.16;4960630;28;45350;-68
2022/01/11 07:57:23;;;;;;;;;40.67;26.33;;;;;2.60;88.95;102897.53;4959352;28;45452;-68
2022/01/11 07:59:49;;;;;;;;;44.00;32.67;;;;;2.61;89.29;102896.72;4960566;28;45791;-68
2022/01/11 08:02:14;;;;;;;;;38.33;29.67;;;;;2.54;89.53;102886.88;4960444;28;45662;-68
2022/01/11 08:04:40;;;;;;;;;49.67;38.00;;;;;2.39;90.71;102862.75;4960219;28;45508;-68
2022/01/11 08:07:05;;;;;;;;;46.67;35.33;;;;;2.59;90.06;102898.34;4959197;28;45770;-68
2022/01/11 08:09:30;;;;;;;;;38.00;28.67;;;;;2.64;89.78;102911.56;4960329;28;45365;-68
2022/01/11 08:11:58;;;;;;;;;39.33;29.67;;;;;2.55;89.63;102892.94;4960066;28;45444;-68
2022/01/11 08:14:24;;;;;;;;;37.67;34.33;;;;;2.68;89.17;102915.19;4959950;28;45404;-68
2022/01/11 08:16:50;;;;;;;;;51.33;39.67;;;;;2.63;89.92;102907.19;4959930;28;45439;-68
2022/01/11 08:19:15;;;;;;;;;45.67;34.00;;;;;2.59;89.14;102905.28;4960328;28;45305;-68
2022/01/11 08:21:41;;;;;;;;;32.33;27.67;;;;;2.69;88.78;102919.59;4959827;28;46086;-68
2022/01/11 08:24:07;;;;;;;;;35.67;28.33;;;;;2.69;88.79;102925.66;4960085;28;45306;-67
2022/01/11 08:26:32;;;;;;;;;33.00;29.00;;;;;2.68;88.51;102925.59;4960166;28;45241;-68
2022/01/11 08:28:57;;;;;;;;;53.67;33.33;;;;;2.66;88.20;102924.63;4960166;28;45476;-68
2022/01/11 08:31:23;;;;;;;;;40.00;31.67;;;;;2.45;88.52;102881.22;4959790;28;45336;-68
2022/01/11 08:33:49;;;;;;;;;35.00;28.00;;;;;2.66;87.73;102922.03;4959588;28;45361;-68
2022/01/11 08:36:15;;;;;;;;;56.33;38.33;;;;;2.70;88.37;102926.56;4959199;28;45256;-68
2022/01/11 08:38:40;;;;;;;;;36.33;26.33;;;;;2.71;88.83;102920.53;4960053;28;45364;-68
2022/01/11 08:41:07;;;;;;;;;45.33;30.00;;;;;2.76;88.64;102922.53;4959577;28;46274;-68
2022/01/11 08:43:33;;;;;;;;;32.67;27.00;;;;;2.72;88.33;102914.53;4959670;28;45456;-68
2022/01/11 08:45:59;;;;;;;;;50.33;34.00;;;;;2.76;88.22;102926.84;4959537;28;45458;-68
2022/01/11 08:48:24;;;;;;;;;51.33;33.33;;;;;2.74;88.40;102931.06;4959736;28;45539;-68
2022/01/11 08:50:53;;;;;;;;;38.67;33.67;;;;;2.72;88.73;102925.81;4959503;28;46929;-68
2022/01/11 08:53:21;;;;;;;;;43.00;33.33;;;;;2.68;88.41;102910.00;4959357;28;45388;-68
2022/01/11 08:55:50;;;;;;;;;44.33;34.67;;;;;2.79;88.31;102933.06;4959406;28;45364;-68
2022/01/11 08:58:17;;;;;;;;;42.67;26.67;;;;;2.81;88.14;102940.06;4959301;28;45368;-68
2022/01/11 09:00:43;;;;;;;;;43.67;35.67;;;;;2.77;88.32;102932.13;4959127;28;46568;-68
2022/01/11 09:03:09;;;;;;;;;50.33;39.00;;;;;2.77;89.15;102939.00;4959489;28;45774;-68
2022/01/11 09:05:35;;;;;;;;;41.33;37.67;;;;;2.80;88.12;102933.94;4959239;28;45266;-67
2022/01/11 09:08:00;;;;;;;;;50.33;36.67;;;;;2.69;88.39;102930.88;4959156;28;45368;-68
2022/01/11 09:10:25;;;;;;;;;42.00;27.33;;;;;2.66;87.92;102935.94;4958601;28;45470;-68
2022/01/11 09:12:51;;;;;;;;;50.67;36.00;;;;;2.33;88.65;102891.09;4959029;28;45431;-68
2022/01/11 09:15:16;;;;;;;;;42.33;32.00;;;;;2.63;88.28;102945.28;4959242;28;45338;-68
2022/01/11 09:17:42;;;;;;;;;38.67;31.33;;;;;2.61;88.69;102951.34;4959398;28;45519;-68
2022/01/11 09:20:10;;;;;;;;;40.00;27.00;;;;;2.46;88.13;102931.53;4958923;28;45881;-67
2022/01/11 09:22:35;;;;;;;;;49.00;32.67;;;;;2.56;87.66;102954.56;4959029;28;45408;-68
2022/01/11 09:25:01;;;;;;;;;41.67;33.00;;;;;2.32;87.36;102918.78;4959187;28;45428;-68
2022/01/11 09:27:27;;;;;;;;;57.00;38.67;;;;;2.39;88.62;102949.44;4958792;28;45323;-68
2022/01/11 09:29:52;;;;;;;;;40.67;30.33;;;;;2.39;88.42;102951.16;4958764;28;46491;-68
2022/01/11 09:32:18;;;;;;;;;41.00;33.00;;;;;2.48;87.99;102964.56;4958697;28;45650;-67
2022/01/11 09:34:43;;;;;;;;;38.00;31.67;;;;;2.36;88.89;102951.00;4958977;28;45172;-68
2022/01/11 09:37:10;;;;;;;;;36.33;29.00;;;;;2.50;88.19;102968.16;4958981;28;45384;-67
2022/01/11 09:39:36;;;;;;;;;41.00;33.33;;;;;2.40;88.51;102956.44;4958745;28;45695;-68
2022/01/11 09:42:05;;;;;;;;;46.33;30.00;;;;;2.46;88.68;102971.44;4958696;28;45458;-68
2022/01/11 09:44:32;;;;;;;;;39.33;28.00;;;;;2.43;88.18;102966.09;4958631;28;45304;-67
2022/01/11 09:46:58;;;;;;;;;46.33;33.67;;;;;2.37;88.36;102971.88;4959195;28;45348;-67
2022/01/11 09:49:23;;;;;;;;;45.67;29.33;;;;;2.56;88.83;102963.22;4958501;28;46049;-67
2022/01/11 09:51:51;;;;;;;;;42.67;27.00;;;;;3.03;87.72;102970.53;4958635;28;45174;-67
2022/01/11 09:54:19;;;;;;;;;44.67;30.67;;;;;3.29;84.85;102936.09;4958911;28;45250;-67
2022/01/11 09:56:45;;;;;;;;;38.33;28.67;;;;;3.84;82.31;102988.72;4958597;28;45468;-67
2022/01/11 09:59:11;;;;;;;;;37.00;29.00;;;;;4.30;82.86;102985.38;4958373;28;47391;-67
2022/01/11 10:01:36;;;;;;;;;36.00;26.67;;;;;4.28;80.48;102973.09;4958444;28;45314;-67
2022/01/11 10:04:08;;;;;;;;;42.67;32.67;;;;;4.34;80.41;102988.97;4958522;28;45349;-67
2022/01/11 10:06:37;;;;;;;;;47.33;29.00;;;;;4.35;80.36;102980.34;4958812;28;45356;-67
2022/01/11 10:09:12;;;;;;;;;37.67;30.00;;;;;4.44;80.72;102985.03;4957715;28;46342;-67
2022/01/11 10:11:40;;;;;;;;;43.67;35.00;;;;;4.18;80.79;102943.16;4958220;28;45368;-67
2022/01/11 10:14:23;;;;;;;;;48.67;37.00;;;;;4.33;80.46;102990.72;4958454;28;45394;-67
2022/01/11 10:17:04;;;;;;;;;41.67;33.00;;;;;4.38;80.67;102992.63;4973380;28;45541;-67
2022/01/11 10:19:30;;;;;;;;;45.67;30.00;;;;;4.41;80.91;102984.91;4958265;28;45984;-67
2022/01/11 10:21:55;;;;;;;;;54.00;33.67;;;;;4.43;80.01;103002.41;4958101;28;45404;-67
2022/01/11 10:24:43;;;;;;;;;57.33;43.00;;;;;4.36;80.35;102998.66;4958528;28;45324;-67
2022/01/11 10:27:13;;;;;;;;;57.67;42.00;;;;;4.29;80.63;103007.06;4958508;28;45301;-67
2022/01/11 10:29:49;;;;;;;;;58.00;40.67;;;;;4.28;80.31;103002.66;4958053;28;46072;-67
2022/01/11 10:32:19;;;;;;;;;55.00;40.00;;;;;4.28;80.29;103007.88;4957604;28;45460;-67
2022/01/11 10:34:48;;;;;;;;;64.33;42.33;;;;;4.22;80.62;102997.22;4957865;28;46575;-67
2022/01/11 10:37:15;;;;;;;;;53.00;42.33;;;;;4.40;80.75;103017.03;4958414;28;45360;-68
2022/01/11 10:39:44;;;;;;;;;50.00;39.00;;;;;4.50;80.81;103017.47;4960926;28;46291;-67
2022/01/11 10:42:28;;;;;;;;;57.00;39.67;;;;;4.51;80.78;103002.69;4961520;28;45268;-67
2022/01/11 10:45:03;;;;;;;;;48.67;36.33;;;;;4.53;80.06;103001.03;4961518;28;45189;-68
2022/01/11 10:47:34;;;;;;;;;52.67;39.67;;;;;4.66;78.98;103011.13;4944395;28;45211;-67
2022/01/11 10:50:32;;;;;;;;;60.00;42.33;;;;;4.60;78.98;102991.72;4961404;28;46536;-68
2022/01/11 10:53:00;;;;;;;;;50.33;40.33;;;;;4.66;77.17;103007.59;4901195;28;45470;-68
2022/01/11 10:55:28;;;;;;;;;55.33;38.67;;;;;4.69;77.54;103006.03;4885908;29;45311;-68
2022/01/11 10:58:00;;;;;;;;;55.67;37.67;;;;;4.64;78.12;103010.16;4901594;29;45507;-67
2022/01/11 11:00:35;;;;;;;;;51.00;39.67;;;;;4.61;78.60;103001.34;4901119;29;45570;-67
2022/01/11 11:03:12;;;;;;;;;42.33;29.00;;;;;4.23;76.95;102949.47;4901280;29;45759;-67
2022/01/11 11:05:39;;;;;;;;;41.67;31.33;;;;;4.37;77.87;102996.91;4901641;29;45508;-67
2022/01/11 11:08:25;;;;;;;;;37.00;30.67;;;;;4.24;78.10;102992.97;4901830;29;45378;-67
2022/01/11 11:10:56;;;;;;;;;37.33;32.33;;;;;4.22;79.15;103011.97;4901171;29;46163;-67
2022/01/11 11:13:27;;;;;;;;;41.00;29.00;;;;;4.18;78.50;103019.69;4900547;29;45453;-68
2022/01/11 11:15:55;;;;;;;;;39.00;27.33;;;;;4.06;78.98;103008.75;4901235;29;45251;-68
2022/01/11 11:18:25;;;;;;;;;37.33;28.33;;;;;4.07;80.10;103013.13;4901355;29;45517;-68
2022/01/11 11:20:51;;;;;;;;;35.67;29.33;;;;;4.09;80.95;103013.19;4901039;29;46143;-68